Icarus — D5AX3 — position and weather

sailwx.info

Track history (hours):
 
Tides and Currents Weather Stations Pressure Air Temp Water Temp Dewpoint Dewpoint Depression Visibility Wind Speed Wind Dir Waves Ship Positions

Icarus

Last reported at 2014-Nov-22 02:15 UTC. Time now 2014-Nov-26 04:05 UTC.
Position N 30°17' E 122°05'.

Length 225 m; draft 7.8 m.

Type: Cargo ship. MMSI: 636015464.

Date/timePositionNaut miles runAvg speedWind from/ knotsBaromVisibWave heightAir tempDewpointWater temp
2014-Nov-22 02:15N 30°17' E 122°05'1 0.0
2014-Nov-21 07:31N 30°16' E 122°05'1 0.2
2014-Nov-21 02:28N 30°15' E 122°05'6 6.6
2014-Nov-21 01:31N 30°15' E 121°58'3 0.9
2014-Nov-20 22:14N 30°16' E 121°55'0 0.1
2014-Nov-20 20:11N 30°16' E 121°55'0 0.1
2014-Nov-20 16:26N 30°16' E 121°54'8 8.0
2014-Nov-20 15:28N 30°21' E 121°47'1212.5
2014-Nov-20 14:31N 30°23' E 122°01'1414.7
2014-Nov-20 13:33N 30°22' E 122°17'1714.1
2014-Nov-20 12:22N 30°22' E 122°36'1113.4
2014-Nov-20 11:32N 30°21' E 122°49'50 8.3
2014-Nov-20 05:32N 31°06' E 122°24'1312.9
2014-Nov-20 04:33N 31°11' E 122°11'1313.4
2014-Nov-20 03:34N 31°15' E 121°56'1110.5
2014-Nov-20 02:34N 31°19' E 121°44'8 7.6
2014-Nov-20 01:34N 31°22' E 121°37'7 7.4
2014-Nov-20 00:33N 31°26' E 121°29'1010.4
2014-Nov-19 23:34N 31°33' E 121°20'3 3.4
2014-Nov-19 22:33N 31°36' E 121°19'0 0.0
2014-Nov-19 21:33N 31°36' E 121°19'0 0.0
2014-Nov-19 20:33N 31°36' E 121°19'0 0.5
2014-Nov-19 19:33N 31°36' E 121°18'1211.6
2014-Nov-19 18:33N 31°43' E 121°07'1111.3
2014-Nov-19 17:33N 31°48' E 120°55'1110.8
2014-Nov-19 16:33N 31°58' E 120°51'1010.0
2014-Nov-19 15:33N 31°60' E 120°39'1110.9
2014-Nov-19 14:33N 32°01' E 120°27'7 7.3
2014-Nov-19 13:33N 31°58' E 120°19'1010.2
2014-Nov-19 12:33N 31°56' E 120°07'1312.7
2014-Nov-19 11:33N 32°04' E 119°56'  
2014-Nov-17 05:33N 32°05' E 119°55'1010.2
2014-Nov-17 04:33N 31°58' E 120°04'9 9.2
2014-Nov-17 03:34N 31°56' E 120°14'9 9.0
2014-Nov-17 02:34N 31°58' E 120°25'6 5.5
2014-Nov-17 01:33N 32°02' E 120°29'1010.4
2014-Nov-17 00:33N 32°00' E 120°41'9 9.0
2014-Nov-16 23:34N 31°58' E 120°52'10 9.8
2014-Nov-16 22:33N 31°48' E 120°55'9 9.5
2014-Nov-16 21:33N 31°45' E 121°06'9 9.4
2014-Nov-16 20:34N 31°39' E 121°14'6 5.7
2014-Nov-16 19:32N 31°35' E 121°19'0 0.0
2014-Nov-16 18:29N 31°35' E 121°19'0 0.0
2014-Nov-16 17:32N 31°35' E 121°19'0 0.0
2014-Nov-16 16:32N 31°35' E 121°19'0 0.0
2014-Nov-16 15:33N 31°35' E 121°19'7 7.1
2014-Nov-16 14:33N 31°30' E 121°25'8 8.4
2014-Nov-16 13:33N 31°24' E 121°33'9 9.1
2014-Nov-16 12:33N 31°20' E 121°42'10 9.8
2014-Nov-16 11:33N 31°16' E 121°52'1010.3
2014-Nov-16 10:33N 31°14' E 122°04'1111.3
2014-Nov-16 09:33N 31°08' E 122°15'10 9.8
2014-Nov-16 08:33N 31°06' E 122°27'8 7.6
2014-Nov-16 07:27N 31°10' E 122°35'91 4.5
2014-Nov-15 11:25N 29°40' E 122°43'1112.0
2014-Nov-15 10:33N 29°41' E 122°31'1211.8
2014-Nov-15 09:33N 29°45' E 122°18'9 9.3
2014-Nov-15 08:33N 29°52' E 122°11'6 6.5
2014-Nov-15 07:34N 29°55' E 122°04'1 0.8
2014-Nov-15 06:19N 29°54' E 122°05'0 0.0
2014-Nov-15 04:19N 29°54' E 122°05'0 0.0
2014-Nov-15 03:07N 29°54' E 122°05'0 0.0
2014-Nov-15 02:31N 29°54' E 122°05'0 0.0
2014-Nov-15 01:31N 29°54' E 122°05'0 0.0
2014-Nov-15 00:25N 29°54' E 122°05'0 0.0
2014-Nov-14 21:31N 29°54' E 122°05'0 0.0
2014-Nov-14 18:31N 29°54' E 122°05'0 0.1
2014-Nov-14 17:31N 29°54' E 122°05'0 0.0
2014-Nov-14 16:19N 29°54' E 122°05'0 0.0
2014-Nov-14 14:31N 29°54' E 122°05'0 0.0
2014-Nov-14 12:31N 29°54' E 122°05'0 0.0
2014-Nov-14 11:13N 29°54' E 122°05'0 0.0
2014-Nov-14 10:13N 29°54' E 122°05'0 0.0
2014-Nov-14 09:31N 29°54' E 122°05'0 0.0
2014-Nov-14 08:31N 29°54' E 122°05'0 0.3
2014-Nov-14 07:33N 29°54' E 122°05'5 5.5
2014-Nov-14 06:33N 29°53' E 122°11'10 9.8
2014-Nov-14 05:33N 29°46' E 122°18'8 8.3
2014-Nov-14 04:33N 29°41' E 122°26'2 0.4
2014-Nov-14 00:17N 29°39' E 122°25'0 0.1
2014-Nov-13 21:05N 29°39' E 122°25'0 0.0
2014-Nov-13 16:21N 29°39' E 122°25'1 1.7
2014-Nov-13 15:33N 29°41' E 122°25'9 9.4
2014-Nov-13 14:33N 29°37' E 122°35'  
Track history (hours):
 
Tides and Currents Weather Stations Pressure Air Temp Water Temp Dewpoint Dewpoint Depression Visibility Wind Speed Wind Dir Waves Ship Positions

Icarus

Last reported at 2014-Nov-22 02:15 UTC. Time now 2014-Nov-26 04:05 UTC.
Position N 30°17' E 122°05'.

Length 225 m; draft 7.8 m.

Type: Cargo ship. MMSI: 636015464.

Date/timePositionNaut miles runAvg speedWind from/ knotsBaromVisibWave heightAir tempDewpointWater temp
2014-Nov-22 02:15N 30°17' E 122°05'1 0.0
2014-Nov-21 07:31N 30°16' E 122°05'1 0.2
2014-Nov-21 02:28N 30°15' E 122°05'6 6.6
2014-Nov-21 01:31N 30°15' E 121°58'3 0.9
2014-Nov-20 22:14N 30°16' E 121°55'0 0.1
2014-Nov-20 20:11N 30°16' E 121°55'0 0.1
2014-Nov-20 16:26N 30°16' E 121°54'8 8.0
2014-Nov-20 15:28N 30°21' E 121°47'1212.5
2014-Nov-20 14:31N 30°23' E 122°01'1414.7
2014-Nov-20 13:33N 30°22' E 122°17'1714.1
2014-Nov-20 12:22N 30°22' E 122°36'1113.4
2014-Nov-20 11:32N 30°21' E 122°49'50 8.3
2014-Nov-20 05:32N 31°06' E 122°24'1312.9
2014-Nov-20 04:33N 31°11' E 122°11'1313.4
2014-Nov-20 03:34N 31°15' E 121°56'1110.5
2014-Nov-20 02:34N 31°19' E 121°44'8 7.6
2014-Nov-20 01:34N 31°22' E 121°37'7 7.4
2014-Nov-20 00:33N 31°26' E 121°29'1010.4
2014-Nov-19 23:34N 31°33' E 121°20'3 3.4
2014-Nov-19 22:33N 31°36' E 121°19'0 0.0
2014-Nov-19 21:33N 31°36' E 121°19'0 0.0
2014-Nov-19 20:33N 31°36' E 121°19'0 0.5
2014-Nov-19 19:33N 31°36' E 121°18'1211.6
2014-Nov-19 18:33N 31°43' E 121°07'1111.3
2014-Nov-19 17:33N 31°48' E 120°55'1110.8
2014-Nov-19 16:33N 31°58' E 120°51'1010.0
2014-Nov-19 15:33N 31°60' E 120°39'1110.9
2014-Nov-19 14:33N 32°01' E 120°27'7 7.3
2014-Nov-19 13:33N 31°58' E 120°19'1010.2
2014-Nov-19 12:33N 31°56' E 120°07'1312.7
2014-Nov-19 11:33N 32°04' E 119°56'  
2014-Nov-17 05:33N 32°05' E 119°55'1010.2
2014-Nov-17 04:33N 31°58' E 120°04'9 9.2
2014-Nov-17 03:34N 31°56' E 120°14'9 9.0
2014-Nov-17 02:34N 31°58' E 120°25'6 5.5
2014-Nov-17 01:33N 32°02' E 120°29'1010.4
2014-Nov-17 00:33N 32°00' E 120°41'9 9.0
2014-Nov-16 23:34N 31°58' E 120°52'10 9.8
2014-Nov-16 22:33N 31°48' E 120°55'9 9.5
2014-Nov-16 21:33N 31°45' E 121°06'9 9.4
2014-Nov-16 20:34N 31°39' E 121°14'6 5.7
2014-Nov-16 19:32N 31°35' E 121°19'0 0.0
2014-Nov-16 18:29N 31°35' E 121°19'0 0.0
2014-Nov-16 17:32N 31°35' E 121°19'0 0.0
2014-Nov-16 16:32N 31°35' E 121°19'0 0.0
2014-Nov-16 15:33N 31°35' E 121°19'7 7.1
2014-Nov-16 14:33N 31°30' E 121°25'8 8.4
2014-Nov-16 13:33N 31°24' E 121°33'9 9.1
2014-Nov-16 12:33N 31°20' E 121°42'10 9.8
2014-Nov-16 11:33N 31°16' E 121°52'1010.3
2014-Nov-16 10:33N 31°14' E 122°04'1111.3
2014-Nov-16 09:33N 31°08' E 122°15'10 9.8
2014-Nov-16 08:33N 31°06' E 122°27'8 7.6
2014-Nov-16 07:27N 31°10' E 122°35'91 4.5
2014-Nov-15 11:25N 29°40' E 122°43'1112.0
2014-Nov-15 10:33N 29°41' E 122°31'1211.8
2014-Nov-15 09:33N 29°45' E 122°18'9 9.3
2014-Nov-15 08:33N 29°52' E 122°11'6 6.5
2014-Nov-15 07:34N 29°55' E 122°04'1 0.8
2014-Nov-15 06:19N 29°54' E 122°05'0 0.0
2014-Nov-15 04:19N 29°54' E 122°05'0 0.0
2014-Nov-15 03:07N 29°54' E 122°05'0 0.0
2014-Nov-15 02:31N 29°54' E 122°05'0 0.0
2014-Nov-15 01:31N 29°54' E 122°05'0 0.0
2014-Nov-15 00:25N 29°54' E 122°05'0 0.0
2014-Nov-14 21:31N 29°54' E 122°05'0 0.0
2014-Nov-14 18:31N 29°54' E 122°05'0 0.1
2014-Nov-14 17:31N 29°54' E 122°05'0 0.0
2014-Nov-14 16:19N 29°54' E 122°05'0 0.0
2014-Nov-14 14:31N 29°54' E 122°05'0 0.0
2014-Nov-14 12:31N 29°54' E 122°05'0 0.0
2014-Nov-14 11:13N 29°54' E 122°05'0 0.0
2014-Nov-14 10:13N 29°54' E 122°05'0 0.0
2014-Nov-14 09:31N 29°54' E 122°05'0 0.0
2014-Nov-14 08:31N 29°54' E 122°05'0 0.3
2014-Nov-14 07:33N 29°54' E 122°05'5 5.5
2014-Nov-14 06:33N 29°53' E 122°11'10 9.8
2014-Nov-14 05:33N 29°46' E 122°18'8 8.3
2014-Nov-14 04:33N 29°41' E 122°26'2 0.4
2014-Nov-14 00:17N 29°39' E 122°25'0 0.1
2014-Nov-13 21:05N 29°39' E 122°25'0 0.0
2014-Nov-13 16:21N 29°39' E 122°25'1 1.7
2014-Nov-13 15:33N 29°41' E 122°25'9 9.4
2014-Nov-13 14:33N 29°37' E 122°35'  

Dump ship's entire track history